sensor_id;sensor_type;location;lat;lon;timestamp;temperature;humidity
1453;DHT22;720;47.738;7.998;2023-05-27T00:01:02;15.00;93.30
1453;DHT22;720;47.738;7.998;2023-05-27T00:03:28;14.80;93.80
1453;DHT22;720;47.738;7.998;2023-05-27T00:05:54;14.70;93.80
1453;DHT22;720;47.738;7.998;2023-05-27T00:08:19;14.70;93.70
1453;DHT22;720;47.738;7.998;2023-05-27T00:10:45;14.60;93.80
1453;DHT22;720;47.738;7.998;2023-05-27T00:13:10;14.70;93.60
1453;DHT22;720;47.738;7.998;2023-05-27T00:15:39;14.60;93.60
1453;DHT22;720;47.738;7.998;2023-05-27T00:18:06;14.60;94.10
1453;DHT22;720;47.738;7.998;2023-05-27T00:20:31;14.60;94.10
1453;DHT22;720;47.738;7.998;2023-05-27T00:22:57;14.50;94.50
1453;DHT22;720;47.738;7.998;2023-05-27T00:25:25;14.50;94.10
1453;DHT22;720;47.738;7.998;2023-05-27T00:27:51;14.60;94.00
1453;DHT22;720;47.738;7.998;2023-05-27T00:30:17;14.60;93.90
1453;DHT22;720;47.738;7.998;2023-05-27T00:32:43;14.50;94.40
1453;DHT22;720;47.738;7.998;2023-05-27T00:35:09;14.50;94.50
1453;DHT22;720;47.738;7.998;2023-05-27T00:37:35;14.40;94.70
1453;DHT22;720;47.738;7.998;2023-05-27T00:40:00;14.40;95.00
1453;DHT22;720;47.738;7.998;2023-05-27T00:42:26;14.40;94.90
1453;DHT22;720;47.738;7.998;2023-05-27T00:44:52;14.30;95.40
1453;DHT22;720;47.738;7.998;2023-05-27T00:47:18;14.20;95.10
1453;DHT22;720;47.738;7.998;2023-05-27T00:49:44;14.20;94.90
1453;DHT22;720;47.738;7.998;2023-05-27T00:52:10;14.30;94.80
1453;DHT22;720;47.738;7.998;2023-05-27T00:54:39;14.30;94.30
1453;DHT22;720;47.738;7.998;2023-05-27T00:57:05;14.40;94.70
1453;DHT22;720;47.738;7.998;2023-05-27T00:59:31;14.30;95.20
1453;DHT22;720;47.738;7.998;2023-05-27T01:01:57;14.10;95.80
1453;DHT22;720;47.738;7.998;2023-05-27T01:04:24;14.10;96.10
1453;DHT22;720;47.738;7.998;2023-05-27T01:07:05;14.10;96.10
1453;DHT22;720;47.738;7.998;2023-05-27T01:14:43;14.00;95.90
1453;DHT22;720;47.738;7.998;2023-05-27T01:17:11;13.90;95.90
1453;DHT22;720;47.738;7.998;2023-05-27T01:19:40;13.90;96.10
1453;DHT22;720;47.738;7.998;2023-05-27T01:22:11;13.90;96.30
1453;DHT22;720;47.738;7.998;2023-05-27T01:24:37;14.00;96.00
1453;DHT22;720;47.738;7.998;2023-05-27T01:27:03;14.00;95.70
1453;DHT22;720;47.738;7.998;2023-05-27T01:29:32;13.90;95.80
1453;DHT22;720;47.738;7.998;2023-05-27T01:32:08;13.80;99.90
1453;DHT22;720;47.738;7.998;2023-05-27T01:37:19;13.80;96.60
1453;DHT22;720;47.738;7.998;2023-05-27T01:39:49;13.80;96.60
1453;DHT22;720;47.738;7.998;2023-05-27T01:42:15;13.70;96.90
1453;DHT22;720;47.738;7.998;2023-05-27T01:44:42;13.70;97.00
1453;DHT22;720;47.738;7.998;2023-05-27T01:47:08;13.60;97.00
1453;DHT22;720;47.738;7.998;2023-05-27T01:49:33;13.50;97.20
1453;DHT22;720;47.738;7.998;2023-05-27T01:52:00;13.50;97.40
1453;DHT22;720;47.738;7.998;2023-05-27T01:54:26;13.50;97.80
1453;DHT22;720;47.738;7.998;2023-05-27T01:56:52;13.50;97.50
1453;DHT22;720;47.738;7.998;2023-05-27T01:59:17;13.50;97.30
1453;DHT22;720;47.738;7.998;2023-05-27T02:01:43;13.50;96.70
1453;DHT22;720;47.738;7.998;2023-05-27T02:04:09;13.60;97.00
1453;DHT22;720;47.738;7.998;2023-05-27T02:06:34;13.70;97.10
1453;DHT22;720;47.738;7.998;2023-05-27T02:09:01;13.60;97.40
1453;DHT22;720;47.738;7.998;2023-05-27T02:11:26;13.60;97.10
1453;DHT22;720;47.738;7.998;2023-05-27T02:13:52;13.50;97.20
1453;DHT22;720;47.738;7.998;2023-05-27T02:16:18;13.50;97.20
1453;DHT22;720;47.738;7.998;2023-05-27T02:18:49;13.50;97.50
1453;DHT22;720;47.738;7.998;2023-05-27T02:21:15;13.60;97.50
1453;DHT22;720;47.738;7.998;2023-05-27T02:23:40;13.60;97.30
1453;DHT22;720;47.738;7.998;2023-05-27T02:26:06;13.60;97.00
1453;DHT22;720;47.738;7.998;2023-05-27T02:28:32;13.70;96.90
1453;DHT22;720;47.738;7.998;2023-05-27T02:30:58;13.60;96.80
1453;DHT22;720;47.738;7.998;2023-05-27T02:33:24;13.60;97.20
1453;DHT22;720;47.738;7.998;2023-05-27T02:35:50;13.50;97.40
1453;DHT22;720;47.738;7.998;2023-05-27T02:38:15;13.50;97.60
1453;DHT22;720;47.738;7.998;2023-05-27T02:40:41;13.50;97.10
1453;DHT22;720;47.738;7.998;2023-05-27T02:43:06;13.50;97.00
1453;DHT22;720;47.738;7.998;2023-05-27T02:45:33;13.50;97.50
1453;DHT22;720;47.738;7.998;2023-05-27T02:47:59;13.40;97.60
1453;DHT22;720;47.738;7.998;2023-05-27T02:50:26;13.40;97.70
1453;DHT22;720;47.738;7.998;2023-05-27T02:52:52;13.30;98.00
1453;DHT22;720;47.738;7.998;2023-05-27T02:55:18;13.30;97.90
1453;DHT22;720;47.738;7.998;2023-05-27T02:57:43;13.20;98.10
1453;DHT22;720;47.738;7.998;2023-05-27T03:00:09;13.20;98.10
1453;DHT22;720;47.738;7.998;2023-05-27T03:02:36;13.20;98.50
1453;DHT22;720;47.738;7.998;2023-05-27T03:05:03;13.10;98.20
1453;DHT22;720;47.738;7.998;2023-05-27T03:07:29;13.10;98.40
1453;DHT22;720;47.738;7.998;2023-05-27T03:09:55;13.10;98.50
1453;DHT22;720;47.738;7.998;2023-05-27T03:12:21;13.00;98.80
1453;DHT22;720;47.738;7.998;2023-05-27T03:14:47;13.10;99.00
1453;DHT22;720;47.738;7.998;2023-05-27T03:17:13;13.00;98.80
1453;DHT22;720;47.738;7.998;2023-05-27T03:19:38;13.00;98.70
1453;DHT22;720;47.738;7.998;2023-05-27T03:22:05;13.20;99.90
1453;DHT22;720;47.738;7.998;2023-05-27T03:24:32;13.10;98.70
1453;DHT22;720;47.738;7.998;2023-05-27T03:26:59;13.00;98.60
1453;DHT22;720;47.738;7.998;2023-05-27T03:29:25;13.00;98.90
1453;DHT22;720;47.738;7.998;2023-05-27T03:31:50;13.20;99.90
1453;DHT22;720;47.738;7.998;2023-05-27T03:34:16;13.10;98.80
1453;DHT22;720;47.738;7.998;2023-05-27T03:36:41;13.10;98.80
1453;DHT22;720;47.738;7.998;2023-05-27T03:39:11;13.00;98.80
1453;DHT22;720;47.738;7.998;2023-05-27T03:41:37;13.00;98.90
1453;DHT22;720;47.738;7.998;2023-05-27T03:44:03;12.90;98.80
1453;DHT22;720;47.738;7.998;2023-05-27T03:46:28;12.80;99.50
1453;DHT22;720;47.738;7.998;2023-05-27T03:48:54;12.90;99.30
1453;DHT22;720;47.738;7.998;2023-05-27T03:51:20;12.80;98.90
1453;DHT22;720;47.738;7.998;2023-05-27T03:53:46;12.90;98.90
1453;DHT22;720;47.738;7.998;2023-05-27T03:56:12;13.00;99.00
1453;DHT22;720;47.738;7.998;2023-05-27T03:58:37;13.00;99.10
1453;DHT22;720;47.738;7.998;2023-05-27T04:01:03;13.00;99.10
1453;DHT22;720;47.738;7.998;2023-05-27T04:03:29;13.10;99.20
1453;DHT22;720;47.738;7.998;2023-05-27T04:05:55;13.10;99.20
1453;DHT22;720;47.738;7.998;2023-05-27T04:08:22;13.10;98.70
1453;DHT22;720;47.738;7.998;2023-05-27T04:10:48;13.20;98.10
1453;DHT22;720;47.738;7.998;2023-05-27T04:13:13;13.30;97.70
1453;DHT22;720;47.738;7.998;2023-05-27T04:15:39;13.30;97.50
1453;DHT22;720;47.738;7.998;2023-05-27T04:18:05;13.30;98.00
1453;DHT22;720;47.738;7.998;2023-05-27T04:20:41;13.40;97.90
1453;DHT22;720;47.738;7.998;2023-05-27T04:23:11;13.50;97.30
1453;DHT22;720;47.738;7.998;2023-05-27T04:25:36;13.60;97.30
1453;DHT22;720;47.738;7.998;2023-05-27T04:28:05;13.60;97.20
1453;DHT22;720;47.738;7.998;2023-05-27T04:30:32;13.70;96.50
1453;DHT22;720;47.738;7.998;2023-05-27T04:32:58;13.70;96.40
1453;DHT22;720;47.738;7.998;2023-05-27T04:35:25;13.90;96.90
1453;DHT22;720;47.738;7.998;2023-05-27T04:37:51;14.20;96.90
1453;DHT22;720;47.738;7.998;2023-05-27T04:40:17;14.60;96.10
1453;DHT22;720;47.738;7.998;2023-05-27T04:42:42;14.90;95.40
1453;DHT22;720;47.738;7.998;2023-05-27T04:45:09;15.20;95.60
1453;DHT22;720;47.738;7.998;2023-05-27T04:47:37;15.30;94.30
1453;DHT22;720;47.738;7.998;2023-05-27T04:50:04;15.50;94.60
1453;DHT22;720;47.738;7.998;2023-05-27T04:52:30;15.70;94.70
1453;DHT22;720;47.738;7.998;2023-05-27T04:55:03;15.90;94.30
1453;DHT22;720;47.738;7.998;2023-05-27T04:57:29;16.20;93.80
1453;DHT22;720;47.738;7.998;2023-05-27T04:59:54;16.50;94.00
1453;DHT22;720;47.738;7.998;2023-05-27T05:02:30;16.90;93.30
1453;DHT22;720;47.738;7.998;2023-05-27T05:05:08;17.50;92.60
1453;DHT22;720;47.738;7.998;2023-05-27T05:07:35;18.10;91.30
1453;DHT22;720;47.738;7.998;2023-05-27T05:10:08;18.70;90.00
1453;DHT22;720;47.738;7.998;2023-05-27T05:12:35;19.40;87.20
1453;DHT22;720;47.738;7.998;2023-05-27T05:15:01;19.80;85.30
1453;DHT22;720;47.738;7.998;2023-05-27T05:17:27;19.80;85.10
1453;DHT22;720;47.738;7.998;2023-05-27T05:19:53;20.00;84.40
1453;DHT22;720;47.738;7.998;2023-05-27T05:22:18;20.10;83.00
1453;DHT22;720;47.738;7.998;2023-05-27T05:24:45;20.00;83.10
1453;DHT22;720;47.738;7.998;2023-05-27T05:27:11;20.00;84.20
1453;DHT22;720;47.738;7.998;2023-05-27T05:29:37;19.90;83.90
1453;DHT22;720;47.738;7.998;2023-05-27T05:32:03;19.80;83.90
1453;DHT22;720;47.738;7.998;2023-05-27T05:34:29;19.80;83.00
1453;DHT22;720;47.738;7.998;2023-05-27T05:36:55;19.60;82.70
1453;DHT22;720;47.738;7.998;2023-05-27T05:39:21;19.60;83.10
1453;DHT22;720;47.738;7.998;2023-05-27T05:41:46;19.50;83.00
1453;DHT22;720;47.738;7.998;2023-05-27T05:44:12;19.70;84.50
1453;DHT22;720;47.738;7.998;2023-05-27T05:46:38;20.00;84.10
1453;DHT22;720;47.738;7.998;2023-05-27T05:49:04;20.40;82.30
1453;DHT22;720;47.738;7.998;2023-05-27T05:51:30;20.70;82.10
1453;DHT22;720;47.738;7.998;2023-05-27T05:53:57;20.80;80.70
1453;DHT22;720;47.738;7.998;2023-05-27T05:56:22;21.00;80.90
1453;DHT22;720;47.738;7.998;2023-05-27T05:58:48;21.10;80.00
1453;DHT22;720;47.738;7.998;2023-05-27T06:01:15;21.20;78.40
1453;DHT22;720;47.738;7.998;2023-05-27T06:03:40;21.30;79.40
1453;DHT22;720;47.738;7.998;2023-05-27T06:06:06;21.30;76.90
1453;DHT22;720;47.738;7.998;2023-05-27T06:08:32;21.20;78.60
1453;DHT22;720;47.738;7.998;2023-05-27T06:10:58;21.20;78.30
1453;DHT22;720;47.738;7.998;2023-05-27T06:13:23;21.50;78.10
1453;DHT22;720;47.738;7.998;2023-05-27T06:15:49;22.10;77.60
1453;DHT22;720;47.738;7.998;2023-05-27T06:18:15;23.40;73.20
1453;DHT22;720;47.738;7.998;2023-05-27T06:20:41;25.20;68.40
1453;DHT22;720;47.738;7.998;2023-05-27T06:23:06;26.90;63.40
1453;DHT22;720;47.738;7.998;2023-05-27T06:25:32;28.60;60.20
1453;DHT22;720;47.738;7.998;2023-05-27T06:27:58;30.30;55.40
1453;DHT22;720;47.738;7.998;2023-05-27T06:30:25;31.40;48.10
1453;DHT22;720;47.738;7.998;2023-05-27T06:32:51;32.30;46.20
1453;DHT22;720;47.738;7.998;2023-05-27T06:35:17;31.90;44.00
1453;DHT22;720;47.738;7.998;2023-05-27T06:37:43;32.10;45.20
1453;DHT22;720;47.738;7.998;2023-05-27T06:40:09;32.90;43.40
1453;DHT22;720;47.738;7.998;2023-05-27T06:42:36;34.00;41.80
1453;DHT22;720;47.738;7.998;2023-05-27T06:45:02;34.70;40.50
1453;DHT22;720;47.738;7.998;2023-05-27T06:47:28;35.00;37.50
1453;DHT22;720;47.738;7.998;2023-05-27T06:49:54;34.50;37.50
1453;DHT22;720;47.738;7.998;2023-05-27T06:52:20;33.60;37.60
1453;DHT22;720;47.738;7.998;2023-05-27T06:54:46;32.60;38.70
1453;DHT22;720;47.738;7.998;2023-05-27T06:57:12;31.90;39.70
1453;DHT22;720;47.738;7.998;2023-05-27T06:59:38;32.00;39.80
1453;DHT22;720;47.738;7.998;2023-05-27T07:02:03;32.00;39.30
1453;DHT22;720;47.738;7.998;2023-05-27T07:04:29;31.70;39.80
1453;DHT22;720;47.738;7.998;2023-05-27T07:06:55;31.20;39.90
1453;DHT22;720;47.738;7.998;2023-05-27T07:09:20;30.60;41.80
1453;DHT22;720;47.738;7.998;2023-05-27T07:11:46;29.60;41.20
1453;DHT22;720;47.738;7.998;2023-05-27T07:14:12;29.00;42.60
1453;DHT22;720;47.738;7.998;2023-05-27T07:16:38;28.30;42.80
1453;DHT22;720;47.738;7.998;2023-05-27T07:19:03;27.70;45.20
1453;DHT22;720;47.738;7.998;2023-05-27T07:21:29;26.30;45.90
1453;DHT22;720;47.738;7.998;2023-05-27T07:23:54;25.60;49.10
1453;DHT22;720;47.738;7.998;2023-05-27T07:26:24;26.00;47.80
1453;DHT22;720;47.738;7.998;2023-05-27T07:28:51;26.10;47.10
1453;DHT22;720;47.738;7.998;2023-05-27T07:31:17;25.90;48.40
1453;DHT22;720;47.738;7.998;2023-05-27T07:33:43;26.40;47.10
1453;DHT22;720;47.738;7.998;2023-05-27T07:36:09;26.20;48.50
1453;DHT22;720;47.738;7.998;2023-05-27T07:38:35;27.00;45.80
1453;DHT22;720;47.738;7.998;2023-05-27T07:41:01;27.80;44.50
1453;DHT22;720;47.738;7.998;2023-05-27T07:43:27;29.20;43.50
1453;DHT22;720;47.738;7.998;2023-05-27T07:45:52;31.00;42.20
1453;DHT22;720;47.738;7.998;2023-05-27T07:48:18;31.80;40.50
1453;DHT22;720;47.738;7.998;2023-05-27T07:50:44;32.20;38.10
1453;DHT22;720;47.738;7.998;2023-05-27T07:53:10;32.40;38.10
1453;DHT22;720;47.738;7.998;2023-05-27T07:55:35;32.60;39.30
1453;DHT22;720;47.738;7.998;2023-05-27T07:58:01;33.50;35.90
1453;DHT22;720;47.738;7.998;2023-05-27T08:00:26;33.10;35.20
1453;DHT22;720;47.738;7.998;2023-05-27T08:02:52;33.30;36.00
1453;DHT22;720;47.738;7.998;2023-05-27T08:05:18;33.00;35.90
1453;DHT22;720;47.738;7.998;2023-05-27T08:07:44;32.80;35.00
1453;DHT22;720;47.738;7.998;2023-05-27T08:10:09;32.50;36.30
1453;DHT22;720;47.738;7.998;2023-05-27T08:12:35;32.30;36.40
1453;DHT22;720;47.738;7.998;2023-05-27T08:15:01;31.80;36.50
1453;DHT22;720;47.738;7.998;2023-05-27T08:17:26;30.40;37.10
1453;DHT22;720;47.738;7.998;2023-05-27T08:19:52;29.20;41.50
1453;DHT22;720;47.738;7.998;2023-05-27T08:22:18;29.60;39.20
1453;DHT22;720;47.738;7.998;2023-05-27T08:24:43;30.30;37.70
1453;DHT22;720;47.738;7.998;2023-05-27T08:27:16;31.10;38.10
1453;DHT22;720;47.738;7.998;2023-05-27T08:29:43;31.30;36.40
1453;DHT22;720;47.738;7.998;2023-05-27T08:32:09;31.20;36.50
1453;DHT22;720;47.738;7.998;2023-05-27T08:34:35;31.00;38.00
1453;DHT22;720;47.738;7.998;2023-05-27T08:37:00;31.10;37.50
1453;DHT22;720;47.738;7.998;2023-05-27T08:39:26;31.50;37.20
1453;DHT22;720;47.738;7.998;2023-05-27T08:41:53;31.80;34.80
1453;DHT22;720;47.738;7.998;2023-05-27T08:44:22;31.50;36.10
1453;DHT22;720;47.738;7.998;2023-05-27T08:46:49;32.00;35.20
1453;DHT22;720;47.738;7.998;2023-05-27T08:49:16;32.00;33.90
1453;DHT22;720;47.738;7.998;2023-05-27T08:51:42;32.20;35.10
1453;DHT22;720;47.738;7.998;2023-05-27T08:54:10;32.10;34.80
1453;DHT22;720;47.738;7.998;2023-05-27T08:56:37;32.10;36.90
1453;DHT22;720;47.738;7.998;2023-05-27T08:59:03;31.90;34.90
1453;DHT22;720;47.738;7.998;2023-05-27T09:01:29;31.60;34.90
1453;DHT22;720;47.738;7.998;2023-05-27T09:03:56;31.40;35.30
1453;DHT22;720;47.738;7.998;2023-05-27T09:06:22;31.10;35.70
1453;DHT22;720;47.738;7.998;2023-05-27T09:08:47;31.20;36.50
1453;DHT22;720;47.738;7.998;2023-05-27T09:11:21;31.30;35.70
1453;DHT22;720;47.738;7.998;2023-05-27T09:13:47;30.90;36.20
1453;DHT22;720;47.738;7.998;2023-05-27T09:16:13;30.50;36.30
1453;DHT22;720;47.738;7.998;2023-05-27T09:18:38;31.00;37.60
1453;DHT22;720;47.738;7.998;2023-05-27T09:21:06;31.00;37.50
1453;DHT22;720;47.738;7.998;2023-05-27T09:23:37;31.00;36.90
1453;DHT22;720;47.738;7.998;2023-05-27T09:26:07;31.30;36.90
1453;DHT22;720;47.738;7.998;2023-05-27T09:28:35;32.10;35.60
1453;DHT22;720;47.738;7.998;2023-05-27T09:31:03;32.30;33.70
1453;DHT22;720;47.738;7.998;2023-05-27T09:33:34;31.80;33.60
1453;DHT22;720;47.738;7.998;2023-05-27T09:36:01;31.60;35.40
1453;DHT22;720;47.738;7.998;2023-05-27T09:38:31;30.70;36.00
1453;DHT22;720;47.738;7.998;2023-05-27T09:40:58;30.20;38.10
1453;DHT22;720;47.738;7.998;2023-05-27T09:43:25;30.10;37.00
1453;DHT22;720;47.738;7.998;2023-05-27T09:45:58;29.80;37.90
1453;DHT22;720;47.738;7.998;2023-05-27T09:48:26;29.30;37.70
1453;DHT22;720;47.738;7.998;2023-05-27T09:50:52;28.90;39.10
1453;DHT22;720;47.738;7.998;2023-05-27T09:53:20;27.60;40.50
1453;DHT22;720;47.738;7.998;2023-05-27T09:55:48;27.90;40.50
1453;DHT22;720;47.738;7.998;2023-05-27T09:58:14;28.60;40.20
1453;DHT22;720;47.738;7.998;2023-05-27T10:00:42;29.30;40.20
1453;DHT22;720;47.738;7.998;2023-05-27T10:03:10;30.00;43.70
1453;DHT22;720;47.738;7.998;2023-05-27T10:05:36;30.70;37.70
1453;DHT22;720;47.738;7.998;2023-05-27T10:08:01;30.70;41.60
1453;DHT22;720;47.738;7.998;2023-05-27T10:10:28;31.10;39.50
1453;DHT22;720;47.738;7.998;2023-05-27T10:12:55;31.20;37.00
1453;DHT22;720;47.738;7.998;2023-05-27T10:15:24;31.20;37.20
1453;DHT22;720;47.738;7.998;2023-05-27T10:17:53;30.90;37.60
1453;DHT22;720;47.738;7.998;2023-05-27T10:20:34;29.50;40.10
1453;DHT22;720;47.738;7.998;2023-05-27T10:23:13;29.00;42.00
1453;DHT22;720;47.738;7.998;2023-05-27T10:25:50;29.60;42.30
1453;DHT22;720;47.738;7.998;2023-05-27T10:28:29;28.90;39.30
1453;DHT22;720;47.738;7.998;2023-05-27T10:33:37;27.20;43.70
1453;DHT22;720;47.738;7.998;2023-05-27T10:36:05;27.20;41.20
1453;DHT22;720;47.738;7.998;2023-05-27T10:38:32;26.80;43.40
1453;DHT22;720;47.738;7.998;2023-05-27T10:40:59;25.90;45.30
1453;DHT22;720;47.738;7.998;2023-05-27T10:43:28;25.60;47.00
1453;DHT22;720;47.738;7.998;2023-05-27T10:46:13;26.10;45.00
1453;DHT22;720;47.738;7.998;2023-05-27T10:48:38;26.90;44.20
1453;DHT22;720;47.738;7.998;2023-05-27T10:51:07;27.20;43.80
1453;DHT22;720;47.738;7.998;2023-05-27T10:53:35;27.20;46.00
1453;DHT22;720;47.738;7.998;2023-05-27T10:56:01;27.00;42.40
1453;DHT22;720;47.738;7.998;2023-05-27T10:58:28;26.90;46.80
1453;DHT22;720;47.738;7.998;2023-05-27T11:00:54;26.80;46.60
1453;DHT22;720;47.738;7.998;2023-05-27T11:03:30;26.90;44.30
1453;DHT22;720;47.738;7.998;2023-05-27T11:06:04;27.20;47.30
1453;DHT22;720;47.738;7.998;2023-05-27T11:08:33;27.10;46.60
1453;DHT22;720;47.738;7.998;2023-05-27T11:11:07;26.50;43.90
1453;DHT22;720;47.738;7.998;2023-05-27T11:13:34;26.20;47.80
1453;DHT22;720;47.738;7.998;2023-05-27T11:16:01;26.20;45.30
1453;DHT22;720;47.738;7.998;2023-05-27T11:18:38;26.40;44.70
1453;DHT22;720;47.738;7.998;2023-05-27T11:21:08;26.30;44.70
1453;DHT22;720;47.738;7.998;2023-05-27T11:23:42;25.80;43.90
1453;DHT22;720;47.738;7.998;2023-05-27T11:26:18;25.60;44.60
1453;DHT22;720;47.738;7.998;2023-05-27T11:28:52;25.40;43.70
1453;DHT22;720;47.738;7.998;2023-05-27T11:31:19;25.50;44.30
1453;DHT22;720;47.738;7.998;2023-05-27T11:33:46;25.60;44.50
1453;DHT22;720;47.738;7.998;2023-05-27T11:36:15;25.70;43.60
1453;DHT22;720;47.738;7.998;2023-05-27T11:38:55;25.70;46.10
1453;DHT22;720;47.738;7.998;2023-05-27T11:41:28;25.40;43.90
1453;DHT22;720;47.738;7.998;2023-05-27T11:44:00;25.20;46.50
1453;DHT22;720;47.738;7.998;2023-05-27T11:46:38;25.40;46.50
1453;DHT22;720;47.738;7.998;2023-05-27T11:49:05;25.40;44.30
1453;DHT22;720;47.738;7.998;2023-05-27T11:51:34;25.30;47.20
1453;DHT22;720;47.738;7.998;2023-05-27T11:54:01;25.20;44.70
1453;DHT22;720;47.738;7.998;2023-05-27T11:56:28;25.30;44.90
1453;DHT22;720;47.738;7.998;2023-05-27T11:58:54;25.20;43.30
1453;DHT22;720;47.738;7.998;2023-05-27T12:01:21;25.00;44.20
1453;DHT22;720;47.738;7.998;2023-05-27T12:03:46;24.70;45.50
1453;DHT22;720;47.738;7.998;2023-05-27T12:06:12;24.50;46.60
1453;DHT22;720;47.738;7.998;2023-05-27T12:08:38;24.20;45.90
1453;DHT22;720;47.738;7.998;2023-05-27T12:11:04;23.90;45.10
1453;DHT22;720;47.738;7.998;2023-05-27T12:13:30;24.20;47.10
1453;DHT22;720;47.738;7.998;2023-05-27T12:15:57;24.40;44.10
1453;DHT22;720;47.738;7.998;2023-05-27T12:18:23;24.50;44.80
1453;DHT22;720;47.738;7.998;2023-05-27T12:20:49;24.50;44.20
1453;DHT22;720;47.738;7.998;2023-05-27T12:23:15;24.40;45.30
1453;DHT22;720;47.738;7.998;2023-05-27T12:25:41;24.60;46.00
1453;DHT22;720;47.738;7.998;2023-05-27T12:28:08;24.60;45.00
1453;DHT22;720;47.738;7.998;2023-05-27T12:30:36;24.80;47.10
1453;DHT22;720;47.738;7.998;2023-05-27T12:33:05;24.90;45.20
1453;DHT22;720;47.738;7.998;2023-05-27T12:35:32;24.80;44.10
1453;DHT22;720;47.738;7.998;2023-05-27T12:37:59;24.90;43.90
1453;DHT22;720;47.738;7.998;2023-05-27T12:40:25;24.90;44.30
1453;DHT22;720;47.738;7.998;2023-05-27T12:42:51;24.30;46.80
1453;DHT22;720;47.738;7.998;2023-05-27T12:45:17;24.00;47.00
1453;DHT22;720;47.738;7.998;2023-05-27T12:47:43;24.00;46.00
1453;DHT22;720;47.738;7.998;2023-05-27T12:50:08;24.10;45.90
1453;DHT22;720;47.738;7.998;2023-05-27T12:52:34;24.10;42.40
1453;DHT22;720;47.738;7.998;2023-05-27T12:55:01;24.30;45.00
1453;DHT22;720;47.738;7.998;2023-05-27T12:57:27;24.40;44.00
1453;DHT22;720;47.738;7.998;2023-05-27T12:59:52;24.40;44.10
1453;DHT22;720;47.738;7.998;2023-05-27T13:02:18;24.40;43.30
1453;DHT22;720;47.738;7.998;2023-05-27T13:04:44;24.50;44.20
1453;DHT22;720;47.738;7.998;2023-05-27T13:07:10;24.10;43.90
1453;DHT22;720;47.738;7.998;2023-05-27T13:09:37;24.00;45.10
1453;DHT22;720;47.738;7.998;2023-05-27T13:12:03;23.80;46.10
1453;DHT22;720;47.738;7.998;2023-05-27T13:14:29;23.80;45.80
1453;DHT22;720;47.738;7.998;2023-05-27T13:16:55;23.30;45.90
1453;DHT22;720;47.738;7.998;2023-05-27T13:19:21;23.20;46.10
1453;DHT22;720;47.738;7.998;2023-05-27T13:21:47;23.00;47.10
1453;DHT22;720;47.738;7.998;2023-05-27T13:24:13;23.20;47.50
1453;DHT22;720;47.738;7.998;2023-05-27T13:26:39;23.30;46.30
1453;DHT22;720;47.738;7.998;2023-05-27T13:29:05;23.40;44.80
1453;DHT22;720;47.738;7.998;2023-05-27T13:31:30;23.60;44.90
1453;DHT22;720;47.738;7.998;2023-05-27T13:33:56;23.70;45.60
1453;DHT22;720;47.738;7.998;2023-05-27T13:36:22;23.60;45.30
1453;DHT22;720;47.738;7.998;2023-05-27T13:38:47;23.30;46.00
1453;DHT22;720;47.738;7.998;2023-05-27T13:41:14;23.10;47.50
1453;DHT22;720;47.738;7.998;2023-05-27T13:43:39;23.30;48.80
1453;DHT22;720;47.738;7.998;2023-05-27T13:46:05;23.60;46.60
1453;DHT22;720;47.738;7.998;2023-05-27T13:48:31;23.80;47.60
1453;DHT22;720;47.738;7.998;2023-05-27T13:50:57;23.90;45.40
1453;DHT22;720;47.738;7.998;2023-05-27T13:53:24;23.80;46.00
1453;DHT22;720;47.738;7.998;2023-05-27T13:55:50;23.70;47.20
1453;DHT22;720;47.738;7.998;2023-05-27T13:58:16;23.60;47.10
1453;DHT22;720;47.738;7.998;2023-05-27T14:00:42;23.50;46.70
1453;DHT22;720;47.738;7.998;2023-05-27T14:03:07;23.30;45.90
1453;DHT22;720;47.738;7.998;2023-05-27T14:05:33;23.30;44.90
1453;DHT22;720;47.738;7.998;2023-05-27T14:08:01;23.20;47.60
1453;DHT22;720;47.738;7.998;2023-05-27T14:10:29;23.50;48.90
1453;DHT22;720;47.738;7.998;2023-05-27T14:12:55;23.60;50.00
1453;DHT22;720;47.738;7.998;2023-05-27T14:15:21;23.70;48.20
1453;DHT22;720;47.738;7.998;2023-05-27T14:17:47;23.90;46.00
1453;DHT22;720;47.738;7.998;2023-05-27T14:20:12;23.90;45.60
1453;DHT22;720;47.738;7.998;2023-05-27T14:22:39;23.90;45.90
1453;DHT22;720;47.738;7.998;2023-05-27T14:25:05;23.70;45.30
1453;DHT22;720;47.738;7.998;2023-05-27T14:27:31;23.50;45.80
1453;DHT22;720;47.738;7.998;2023-05-27T14:29:57;23.30;47.20
1453;DHT22;720;47.738;7.998;2023-05-27T14:32:23;23.20;50.10
1453;DHT22;720;47.738;7.998;2023-05-27T14:34:48;23.00;50.00
1453;DHT22;720;47.738;7.998;2023-05-27T14:37:14;22.90;45.60
1453;DHT22;720;47.738;7.998;2023-05-27T14:39:40;23.00;47.50
1453;DHT22;720;47.738;7.998;2023-05-27T14:42:05;23.20;46.00
1453;DHT22;720;47.738;7.998;2023-05-27T14:44:34;23.10;46.80
1453;DHT22;720;47.738;7.998;2023-05-27T14:47:04;23.10;48.30
1453;DHT22;720;47.738;7.998;2023-05-27T14:49:29;23.20;47.60
1453;DHT22;720;47.738;7.998;2023-05-27T14:51:55;23.20;46.60
1453;DHT22;720;47.738;7.998;2023-05-27T14:54:21;23.20;47.30
1453;DHT22;720;47.738;7.998;2023-05-27T14:56:47;23.20;48.00
1453;DHT22;720;47.738;7.998;2023-05-27T14:59:12;23.10;47.10
1453;DHT22;720;47.738;7.998;2023-05-27T15:01:38;23.10;48.20
1453;DHT22;720;47.738;7.998;2023-05-27T15:04:04;22.90;48.90
1453;DHT22;720;47.738;7.998;2023-05-27T15:06:30;22.90;49.90
1453;DHT22;720;47.738;7.998;2023-05-27T15:08:56;22.70;52.50
1453;DHT22;720;47.738;7.998;2023-05-27T15:11:22;22.60;47.80
1453;DHT22;720;47.738;7.998;2023-05-27T15:13:47;22.50;46.50
1453;DHT22;720;47.738;7.998;2023-05-27T15:16:13;22.40;46.40
1453;DHT22;720;47.738;7.998;2023-05-27T15:18:39;22.40;45.30
1453;DHT22;720;47.738;7.998;2023-05-27T15:21:06;22.50;44.90
1453;DHT22;720;47.738;7.998;2023-05-27T15:23:32;22.40;47.80
1453;DHT22;720;47.738;7.998;2023-05-27T15:25:58;22.20;46.80
1453;DHT22;720;47.738;7.998;2023-05-27T15:28:24;22.10;46.20
1453;DHT22;720;47.738;7.998;2023-05-27T15:30:50;22.10;44.40
1453;DHT22;720;47.738;7.998;2023-05-27T15:33:17;22.00;44.90
1453;DHT22;720;47.738;7.998;2023-05-27T15:35:43;22.10;44.70
1453;DHT22;720;47.738;7.998;2023-05-27T15:38:09;22.10;46.30
1453;DHT22;720;47.738;7.998;2023-05-27T15:40:40;21.90;49.00
1453;DHT22;720;47.738;7.998;2023-05-27T15:43:08;21.90;49.80
1453;DHT22;720;47.738;7.998;2023-05-27T15:45:35;22.00;45.80
1453;DHT22;720;47.738;7.998;2023-05-27T15:48:01;21.90;46.60
1453;DHT22;720;47.738;7.998;2023-05-27T15:50:26;21.90;47.10
1453;DHT22;720;47.738;7.998;2023-05-27T15:52:52;22.00;47.20
1453;DHT22;720;47.738;7.998;2023-05-27T15:55:18;22.10;47.50
1453;DHT22;720;47.738;7.998;2023-05-27T15:57:43;22.10;46.60
1453;DHT22;720;47.738;7.998;2023-05-27T16:00:11;22.10;46.40
1453;DHT22;720;47.738;7.998;2023-05-27T16:02:37;22.00;47.80
1453;DHT22;720;47.738;7.998;2023-05-27T16:05:03;21.90;48.10
1453;DHT22;720;47.738;7.998;2023-05-27T16:07:29;21.90;46.00
1453;DHT22;720;47.738;7.998;2023-05-27T16:09:55;21.70;44.90
1453;DHT22;720;47.738;7.998;2023-05-27T16:12:23;21.50;46.80
1453;DHT22;720;47.738;7.998;2023-05-27T16:14:49;21.40;45.70
1453;DHT22;720;47.738;7.998;2023-05-27T16:17:15;21.40;46.60
1453;DHT22;720;47.738;7.998;2023-05-27T16:19:40;21.40;46.60
1453;DHT22;720;47.738;7.998;2023-05-27T16:22:06;21.40;54.30
1453;DHT22;720;47.738;7.998;2023-05-27T16:24:32;21.20;47.30